Time;durP1;ratioP1;P1;durP2;ratioP2;P2;SDS_P1;SDS_P2;PMS_P1;PMS_P2;Temp;Humidity;BMP_temperature;BMP_pressure;BME280_temperature;BME280_humidity;BME280_pressure;Samples;Min_cycle;Max_cycle;Signal;HPM_P1;HPM_P2
2022/04/22 00:01:40;;;;;;;1.77;0.70;;;10.80;99.90;;;;;;5036566;28;20894;-71
2022/04/22 00:04:10;;;;;;;1.07;0.70;;;10.80;99.90;;;;;;5039619;28;20180;-71
2022/04/22 00:06:37;;;;;;;2.13;0.80;;;10.70;99.90;;;;;;5042715;28;20210;-70
2022/04/22 00:09:04;;;;;;;1.00;0.80;;;10.70;99.90;;;;;;5046915;28;20238;-71
2022/04/22 00:11:31;;;;;;;1.83;0.80;;;10.70;99.90;;;;;;5038276;28;20191;-71
2022/04/22 00:14:02;;;;;;;2.60;0.80;;;10.70;99.90;;;;;;5026018;28;20188;-70
2022/04/22 00:16:30;;;;;;;1.37;0.70;;;10.70;99.90;;;;;;5043468;28;20223;-70
2022/04/22 00:18:58;;;;;;;1.23;0.60;;;10.70;99.90;;;;;;5024795;28;20187;-70
2022/04/22 00:21:27;;;;;;;1.73;0.87;;;10.60;99.90;;;;;;5040173;28;20242;-70
2022/04/22 00:23:54;;;;;;;2.90;1.10;;;10.60;99.90;;;;;;5042471;28;20198;-70
2022/04/22 00:26:22;;;;;;;1.63;0.80;;;10.60;99.90;;;;;;5033728;28;20195;-70
2022/04/22 00:28:48;;;;;;;2.87;1.00;;;10.50;99.90;;;;;;5045711;28;20205;-71
2022/04/22 00:31:15;;;;;;;1.27;0.70;;;10.60;99.90;;;;;;5046861;28;20187;-70
2022/04/22 00:33:41;;;;;;;2.37;1.00;;;10.50;99.90;;;;;;5050419;28;20283;-70
2022/04/22 00:36:08;;;;;;;1.60;0.90;;;10.50;99.90;;;;;;5026128;28;20195;-70
2022/04/22 00:38:36;;;;;;;2.73;0.97;;;10.60;99.90;;;;;;5030485;28;20287;-71
2022/04/22 00:41:02;;;;;;;2.87;0.90;;;10.50;99.90;;;;;;5044178;28;20188;-71
2022/04/22 00:43:40;;;;;;;2.33;0.80;;;10.60;99.90;;;;;;5050545;28;20184;-70
2022/04/22 00:46:06;;;;;;;2.60;0.80;;;10.60;99.90;;;;;;5038120;28;20312;-71
2022/04/22 00:48:33;;;;;;;1.10;0.80;;;10.60;99.90;;;;;;5051647;28;20212;-71
2022/04/22 00:51:00;;;;;;;1.93;0.80;;;10.60;99.90;;;;;;5038080;28;20230;-71
2022/04/22 00:53:26;;;;;;;2.13;1.10;;;10.60;99.90;;;;;;5023309;28;20219;-70
2022/04/22 00:55:55;;;;;;;2.73;0.90;;;10.60;99.90;;;;;;5039344;28;20589;-71
2022/04/22 00:58:22;;;;;;;2.53;1.00;;;10.60;99.90;;;;;;5055529;28;20640;-71
2022/04/22 01:00:48;;;;;;;1.63;1.00;;;10.60;99.90;;;;;;5040293;28;20215;-71
2022/04/22 01:03:15;;;;;;;4.07;1.37;;;10.60;99.90;;;;;;5048323;28;20207;-71
2022/04/22 01:11:15;;;;;;;3.10;1.20;;;10.60;99.90;;;;;;5046159;28;20219;-71
2022/04/22 01:13:41;;;;;;;2.60;1.03;;;10.60;99.90;;;;;;5043335;28;20187;-71
2022/04/22 01:16:08;;;;;;;2.83;1.10;;;10.70;99.90;;;;;;5043028;28;20190;-71
2022/04/22 01:18:35;;;;;;;4.40;1.10;;;10.60;99.90;;;;;;5025147;28;20218;-71
2022/04/22 01:21:04;;;;;;;2.83;1.47;;;10.70;99.90;;;;;;5041447;28;20526;-71
2022/04/22 01:23:33;;;;;;;5.80;1.37;;;10.70;99.90;;;;;;5050860;28;20210;-71
2022/04/22 01:26:00;;;;;;;4.50;1.27;;;10.70;99.90;;;;;;5027812;28;20184;-71
2022/04/22 01:28:30;;;;;;;2.37;1.17;;;10.70;99.90;;;;;;5054844;28;20214;-71
2022/04/22 01:30:58;;;;;;;3.70;1.60;;;10.70;99.90;;;;;;5027127;28;20176;-70
2022/04/22 01:33:26;;;;;;;4.67;1.30;;;10.70;99.90;;;;;;5034828;28;20296;-70
2022/04/22 01:35:53;;;;;;;5.47;1.33;;;10.70;99.90;;;;;;5033249;28;20192;-71
2022/04/22 01:38:23;;;;;;;2.10;1.10;;;10.70;99.90;;;;;;5044154;28;20203;-71
2022/04/22 01:40:50;;;;;;;4.87;1.23;;;10.70;99.90;;;;;;5048647;28;20195;-70
2022/04/22 01:43:17;;;;;;;2.97;1.43;;;10.70;99.90;;;;;;5046130;28;20208;-71
2022/04/22 01:45:44;;;;;;;4.10;1.53;;;10.80;99.90;;;;;;5031421;28;20188;-71
2022/04/22 01:48:11;;;;;;;2.80;1.30;;;10.80;99.90;;;;;;5045008;28;20542;-70
2022/04/22 01:50:38;;;;;;;5.40;1.37;;;10.80;99.90;;;;;;5037337;28;20188;-70
2022/04/22 01:53:06;;;;;;;7.30;1.70;;;10.80;99.90;;;;;;5027445;28;20268;-71
2022/04/22 01:55:36;;;;;;;3.17;1.27;;;10.70;99.90;;;;;;5044127;28;21793;-70
2022/04/22 01:58:04;;;;;;;3.17;1.10;;;10.70;99.90;;;;;;5023179;28;20241;-71
2022/04/22 02:00:31;;;;;;;3.23;1.10;;;10.80;99.90;;;;;;5025681;28;20195;-71
2022/04/22 02:02:58;;;;;;;4.13;1.27;;;10.70;99.90;;;;;;5039452;28;20195;-71
2022/04/22 02:05:24;;;;;;;4.13;1.10;;;10.70;99.90;;;;;;5045928;28;20277;-71
2022/04/22 02:07:50;;;;;;;4.80;1.30;;;10.70;99.90;;;;;;5031147;28;20229;-70
2022/04/22 02:10:17;;;;;;;3.03;1.20;;;10.80;99.90;;;;;;5039887;28;20225;-70
2022/04/22 02:12:43;;;;;;;5.47;1.10;;;10.80;99.90;;;;;;5048136;28;20187;-71
2022/04/22 02:15:10;;;;;;;5.63;1.33;;;10.80;99.90;;;;;;5043694;28;20181;-71
2022/04/22 02:17:36;;;;;;;3.23;1.20;;;10.80;99.90;;;;;;5037880;28;20270;-70
2022/04/22 02:20:04;;;;;;;2.93;1.37;;;10.80;99.90;;;;;;5057744;28;20272;-70
2022/04/22 02:22:30;;;;;;;3.80;1.13;;;10.80;99.90;;;;;;5019859;28;20191;-70
2022/04/22 02:24:59;;;;;;;5.00;1.40;;;10.80;99.90;;;;;;5045684;28;20265;-71
2022/04/22 02:30:11;;;;;;;2.37;1.17;;;10.80;99.90;;;;;;5040776;28;20184;-71
2022/04/22 02:32:38;;;;;;;2.53;1.40;;;10.80;99.90;;;;;;5034832;28;20207;-71
2022/04/22 02:35:06;;;;;;;3.50;1.40;;;10.80;99.90;;;;;;5034340;28;20210;-70
2022/04/22 02:37:38;;;;;;;9.57;1.40;;;10.80;99.90;;;;;;5030966;28;20660;-71
2022/04/22 02:40:05;;;;;;;2.33;1.10;;;10.80;99.90;;;;;;5044232;28;20188;-71
2022/04/22 02:45:27;;;;;;;3.53;1.30;;;10.70;99.90;;;;;;5045995;28;20191;-70
2022/04/22 02:47:57;;;;;;;2.40;1.30;;;10.70;99.90;;;;;;5031657;28;20253;-70
2022/04/22 02:50:25;;;;;;;4.13;1.33;;;10.70;99.90;;;;;;5044289;28;20186;-70
2022/04/22 02:52:51;;;;;;;2.07;1.00;;;10.70;99.90;;;;;;5035998;28;20195;-71
2022/04/22 02:55:18;;;;;;;3.03;1.20;;;10.70;99.90;;;;;;5043147;28;20211;-70
2022/04/22 02:57:45;;;;;;;4.63;1.20;;;10.60;99.90;;;;;;5041116;28;20227;-70
2022/04/22 03:00:15;;;;;;;2.10;1.00;;;10.60;99.90;;;;;;5039850;28;20194;-71
2022/04/22 03:02:42;;;;;;;4.93;1.13;;;10.60;99.90;;;;;;5044952;28;20245;-70
2022/04/22 03:05:10;;;;;;;6.60;1.70;;;10.60;99.90;;;;;;5042716;28;20185;-70
2022/04/22 03:07:40;;;;;;;1.93;1.00;;;10.60;99.90;;;;;;5027072;28;20188;-70
2022/04/22 03:10:07;;;;;;;2.63;1.23;;;10.50;99.90;;;;;;5039479;28;20206;-70
2022/04/22 03:12:34;;;;;;;2.60;1.37;;;10.50;99.90;;;;;;5045988;28;20192;-70
2022/04/22 03:15:04;;;;;;;2.97;1.30;;;10.50;99.90;;;;;;5041043;28;20180;-70
2022/04/22 03:17:30;;;;;;;2.57;1.20;;;10.50;99.90;;;;;;5044452;28;20582;-71
2022/04/22 03:19:56;;;;;;;4.53;1.27;;;10.50;99.90;;;;;;5041112;28;20192;-70
2022/04/22 03:22:24;;;;;;;2.73;1.20;;;10.40;99.90;;;;;;5041845;28;20189;-70
2022/04/22 03:24:51;;;;;;;2.07;1.23;;;10.40;99.90;;;;;;5039182;28;20222;-70
2022/04/22 03:27:17;;;;;;;2.80;1.30;;;10.40;99.90;;;;;;5047174;28;20233;-70
2022/04/22 03:29:44;;;;;;;5.23;1.53;;;10.40;99.90;;;;;;5031673;28;20207;-70
2022/04/22 03:32:13;;;;;;;3.00;1.30;;;10.40;99.90;;;;;;5023227;28;20227;-70
2022/04/22 03:34:39;;;;;;;3.77;1.57;;;10.40;99.90;;;;;;5031514;28;20185;-70
2022/04/22 03:37:06;;;;;;;2.87;1.30;;;10.40;99.90;;;;;;5043818;28;20545;-70
2022/04/22 03:39:32;;;;;;;9.13;2.10;;;10.40;99.90;;;;;;5044041;28;20191;-70
2022/04/22 03:42:00;;;;;;;5.00;1.53;;;10.40;99.90;;;;;;5024795;28;20192;-70
2022/04/22 03:44:26;;;;;;;5.13;1.80;;;10.40;99.90;;;;;;5048260;28;20199;-70
2022/04/22 03:46:53;;;;;;;3.93;1.60;;;10.40;99.90;;;;;;5043761;28;20714;-70
2022/04/22 03:49:20;;;;;;;4.60;1.70;;;10.40;99.90;;;;;;5049812;28;20215;-70
2022/04/22 03:51:50;;;;;;;9.37;2.47;;;10.40;99.90;;;;;;5067475;28;20192;-70
2022/04/22 03:54:18;;;;;;;6.10;1.57;;;10.40;99.90;;;;;;5033428;28;20187;-70
2022/04/22 03:59:31;;;;;;;5.80;1.63;;;10.40;99.90;;;;;;5045631;28;20333;-70
2022/04/22 04:01:57;;;;;;;3.30;1.60;;;10.40;99.90;;;;;;5044747;28;20187;-70
2022/04/22 04:04:23;;;;;;;4.23;1.70;;;10.40;99.90;;;;;;5039486;28;20196;-71
2022/04/22 04:06:50;;;;;;;2.00;1.40;;;10.40;99.90;;;;;;5048984;28;20191;-71
2022/04/22 04:17:40;;;;;;;8.17;1.60;;;10.40;99.90;;;;;;5051478;28;20187;-71
2022/04/22 04:25:40;;;;;;;3.33;1.80;;;10.40;99.90;;;;;;5040383;28;20191;-70
2022/04/22 04:28:10;;;;;;;4.47;1.40;;;10.50;99.90;;;;;;5047488;28;20286;-70
2022/04/22 04:30:41;;;;;;;3.17;1.53;;;10.40;99.90;;;;;;5040874;28;20276;-71
2022/04/22 04:33:08;;;;;;;3.23;1.63;;;10.50;99.90;;;;;;5049148;28;20211;-71
2022/04/22 04:35:37;;;;;;;6.80;1.87;;;10.50;99.90;;;;;;5027929;28;20186;-70
2022/04/22 04:38:04;;;;;;;2.00;1.53;;;10.50;99.90;;;;;;5038628;28;20575;-70
2022/04/22 04:40:38;;;;;;;5.37;1.67;;;10.50;99.90;;;;;;5037871;28;20195;-70
2022/04/22 04:43:08;;;;;;;6.00;1.80;;;10.50;99.90;;;;;;5036770;28;20653;-71
2022/04/22 04:45:36;;;;;;;6.23;1.73;;;10.50;99.90;;;;;;5050680;28;20659;-70
2022/04/22 04:48:04;;;;;;;2.93;1.60;;;10.60;99.90;;;;;;5033602;28;20513;-71
2022/04/22 04:50:33;;;;;;;4.57;1.50;;;10.60;99.90;;;;;;5044580;28;20620;-70
2022/04/22 04:53:01;;;;;;;6.13;1.67;;;10.70;99.90;;;;;;5038127;28;20255;-70
2022/04/22 04:55:30;;;;;;;2.33;1.27;;;10.70;99.90;;;;;;5043071;28;20190;-70
2022/04/22 04:57:58;;;;;;;3.57;1.47;;;10.80;99.90;;;;;;5038024;28;20189;-71
2022/04/22 05:00:26;;;;;;;3.60;1.43;;;10.70;99.90;;;;;;5039949;28;20195;-70
2022/04/22 05:02:52;;;;;;;2.57;1.30;;;10.80;99.90;;;;;;5032890;28;20533;-71
2022/04/22 05:05:20;;;;;;;4.67;1.70;;;10.80;99.90;;;;;;5045721;28;20283;-70
2022/04/22 05:08:00;;;;;;;2.63;1.33;;;10.80;99.90;;;;;;5042123;28;20186;-70
2022/04/22 05:10:32;;;;;;;3.83;1.50;;;10.90;99.90;;;;;;5039651;28;20271;-70
2022/04/22 05:12:59;;;;;;;2.40;1.40;;;10.90;99.90;;;;;;5044503;28;20206;-71
2022/04/22 05:15:27;;;;;;;2.73;1.50;;;11.00;99.90;;;;;;5026992;28;20266;-70
2022/04/22 05:17:55;;;;;;;3.87;1.43;;;11.00;99.90;;;;;;5048277;28;20180;-70
2022/04/22 05:20:26;;;;;;;3.27;1.40;;;11.10;99.90;;;;;;5045409;28;20211;-70
2022/04/22 05:22:54;;;;;;;5.97;1.40;;;11.10;99.90;;;;;;5044159;28;20180;-70
2022/04/22 05:25:23;;;;;;;1.90;1.30;;;11.20;99.90;;;;;;5039232;28;20214;-71
2022/04/22 05:27:50;;;;;;;1.30;1.20;;;11.20;99.90;;;;;;5031010;28;20187;-71
2022/04/22 05:33:04;;;;;;;2.70;1.20;;;11.30;99.90;;;;;;5046304;28;20668;-71
2022/04/22 05:35:32;;;;;;;2.20;1.20;;;11.30;99.90;;;;;;5043487;28;20191;-71
2022/04/22 05:38:04;;;;;;;3.00;1.30;;;11.40;99.90;;;;;;5034357;28;20188;-70
2022/04/22 05:40:36;;;;;;;1.83;1.30;;;11.30;99.90;;;;;;5041986;28;20218;-72
2022/04/22 05:43:08;;;;;;;2.37;1.10;;;11.50;99.90;;;;;;5044607;28;20225;-71
2022/04/22 05:45:36;;;;;;;4.27;1.30;;;11.40;99.90;;;;;;5037024;28;20195;-71
2022/04/22 05:48:03;;;;;;;3.93;1.10;;;11.50;99.90;;;;;;5037375;28;20835;-70
2022/04/22 05:50:30;;;;;;;3.10;1.40;;;11.50;99.90;;;;;;5025096;28;20412;-71
2022/04/22 05:52:58;;;;;;;2.17;1.73;;;11.70;99.90;;;;;;5044883;28;20188;-71
2022/04/22 05:55:27;;;;;;;3.87;2.23;;;11.70;99.90;;;;;;5046706;28;20214;-71
2022/04/22 05:57:55;;;;;;;2.33;1.40;;;11.80;99.90;;;;;;5037921;28;20267;-71
2022/04/22 06:00:26;;;;;;;1.90;1.53;;;11.80;99.90;;;;;;5046237;28;20199;-71
2022/04/22 06:02:54;;;;;;;3.87;1.73;;;11.80;99.90;;;;;;5024379;28;20189;-71
2022/04/22 06:05:22;;;;;;;2.90;1.50;;;11.90;99.90;;;;;;5047546;28;20870;-71
2022/04/22 06:10:38;;;;;;;3.27;1.30;;;12.00;99.90;;;;;;5039492;28;20190;-71
2022/04/22 06:13:07;;;;;;;1.60;1.13;;;12.20;99.90;;;;;;5034136;28;20188;-71
2022/04/22 06:15:34;;;;;;;2.33;1.27;;;12.20;99.90;;;;;;5030514;28;20564;-71
2022/04/22 06:18:06;;;;;;;3.63;1.30;;;12.20;99.90;;;;;;5042912;28;20212;-71
2022/04/22 06:20:33;;;;;;;3.60;1.17;;;12.30;99.90;;;;;;5037903;28;20202;-71
2022/04/22 06:23:03;;;;;;;3.80;1.10;;;12.30;99.90;;;;;;5044973;28;20223;-71
2022/04/22 06:25:31;;;;;;;2.80;1.27;;;12.40;99.90;;;;;;5026699;28;20219;-72
2022/04/22 06:28:00;;;;;;;1.17;0.80;;;12.50;99.90;;;;;;5025203;28;20207;-71
2022/04/22 06:30:27;;;;;;;4.27;2.30;;;12.50;99.90;;;;;;5040326;28;20192;-71
2022/04/22 06:32:54;;;;;;;3.17;1.77;;;12.70;99.90;;;;;;5037685;28;20202;-71
2022/04/22 06:35:22;;;;;;;3.70;1.20;;;12.70;99.90;;;;;;5031518;28;20188;-71
2022/04/22 06:37:53;;;;;;;3.33;1.40;;;12.70;99.90;;;;;;5026244;28;20181;-71
2022/04/22 06:45:56;;;;;;;3.90;2.10;;;13.10;99.90;;;;;;5046226;28;20184;-71
2022/04/22 06:48:30;;;;;;;4.17;1.73;;;13.10;99.90;;;;;;5040122;28;20207;-71
2022/04/22 06:50:59;;;;;;;3.60;1.73;;;13.20;99.90;;;;;;5039586;28;20184;-71
2022/04/22 06:53:27;;;;;;;3.50;1.87;;;13.20;99.90;;;;;;5040066;28;20673;-72
2022/04/22 06:56:13;;;;;;;9.67;1.67;;;13.30;99.90;;;;;;5032756;28;20195;-72
2022/04/22 06:58:41;;;;;;;6.63;1.50;;;13.30;99.90;;;;;;5025597;28;20286;-72
2022/04/22 07:01:11;;;;;;;5.53;1.70;;;13.40;99.90;;;;;;5035906;28;20704;-72
2022/04/22 07:03:37;;;;;;;3.00;1.43;;;13.40;99.90;;;;;;5023061;28;20650;-71
2022/04/22 07:06:04;;;;;;;7.00;1.83;;;13.60;99.90;;;;;;5032733;28;20676;-71
2022/04/22 07:08:31;;;;;;;5.23;1.87;;;13.80;99.90;;;;;;5048488;28;20261;-71
2022/04/22 07:11:03;;;;;;;5.47;1.60;;;13.80;99.90;;;;;;5048754;28;20176;-71
2022/04/22 07:13:29;;;;;;;2.37;1.40;;;13.90;99.90;;;;;;5046047;28;20192;-72
2022/04/22 07:16:01;;;;;;;3.80;1.50;;;14.00;99.90;;;;;;5037295;28;20183;-71
2022/04/22 07:18:29;;;;;;;3.50;1.30;;;14.00;99.90;;;;;;5030808;28;20241;-71
2022/04/22 07:20:56;;;;;;;5.87;1.53;;;14.10;99.90;;;;;;5048270;28;20196;-71
2022/04/22 07:23:24;;;;;;;2.77;1.40;;;14.30;99.90;;;;;;5050123;28;20183;-71
2022/04/22 07:25:50;;;;;;;3.10;1.67;;;14.30;99.90;;;;;;5052264;28;20183;-72
2022/04/22 07:28:18;;;;;;;3.27;1.30;;;14.40;99.90;;;;;;5033212;28;20261;-72
2022/04/22 07:30:50;;;;;;;4.33;1.30;;;14.40;99.90;;;;;;5030304;28;20323;-71
2022/04/22 07:33:18;;;;;;;7.20;2.90;;;14.50;99.90;;;;;;5038585;28;20223;-71
2022/04/22 07:35:46;;;;;;;2.37;1.70;;;14.60;99.90;;;;;;5046896;28;20629;-71
2022/04/22 07:38:13;;;;;;;3.50;1.27;;;14.70;99.90;;;;;;5049807;28;20184;-71
2022/04/22 07:40:40;;;;;;;4.57;1.60;;;14.70;99.90;;;;;;5048712;28;20196;-71
2022/04/22 07:48:41;;;;;;;3.23;1.30;;;15.00;99.90;;;;;;5040316;28;20234;-71
2022/04/22 07:51:11;;;;;;;4.20;1.53;;;15.00;99.90;;;;;;5044414;28;20191;-71
2022/04/22 07:53:37;;;;;;;2.63;1.30;;;15.00;99.90;;;;;;5050995;28;20269;-71
2022/04/22 07:56:07;;;;;;;3.20;1.40;;;15.20;99.90;;;;;;5046302;28;20605;-71
2022/04/22 07:58:34;;;;;;;8.77;4.97;;;15.20;99.90;;;;;;5024125;28;20188;-72
2022/04/22 08:01:00;;;;;;;3.17;1.40;;;15.30;99.90;;;;;;5040733;28;20268;-72
2022/04/22 08:03:27;;;;;;;3.63;1.53;;;15.30;99.90;;;;;;5037024;28;20212;-71
2022/04/22 08:05:53;;;;;;;4.30;1.40;;;15.40;99.90;;;;;;5043175;28;20181;-72
2022/04/22 08:08:20;;;;;;;4.23;1.70;;;15.50;99.90;;;;;;5029998;28;20210;-71
2022/04/22 08:10:46;;;;;;;4.50;1.47;;;15.60;99.90;;;;;;5046307;28;20188;-71
2022/04/22 08:13:16;;;;;;;4.20;1.70;;;15.70;99.90;;;;;;5045142;28;20196;-72
2022/04/22 08:15:44;;;;;;;2.87;1.33;;;15.70;99.90;;;;;;5039359;28;20203;-72
2022/04/22 08:18:15;;;;;;;6.37;1.40;;;15.80;99.90;;;;;;5040313;28;20666;-72
2022/04/22 08:20:41;;;;;;;3.40;1.50;;;15.90;99.90;;;;;;5048719;28;20198;-71
2022/04/22 08:23:08;;;;;;;3.67;1.47;;;15.90;99.90;;;;;;5036797;28;20731;-73
2022/04/22 08:25:41;;;;;;;5.97;1.23;;;16.00;99.90;;;;;;5044046;28;20187;-71
2022/04/22 08:28:09;;;;;;;3.57;1.50;;;16.10;99.90;;;;;;5040252;28;20212;-71
2022/04/22 08:30:36;;;;;;;5.23;1.33;;;16.20;99.90;;;;;;5029759;28;20191;-71
2022/04/22 08:33:04;;;;;;;4.37;1.47;;;16.30;99.90;;;;;;5025598;28;20208;-71
2022/04/22 08:35:30;;;;;;;3.83;1.40;;;16.30;99.90;;;;;;5047532;28;20213;-72
2022/04/22 08:37:59;;;;;;;3.93;1.63;;;16.40;99.90;;;;;;5026154;28;20637;-71
2022/04/22 08:40:27;;;;;;;5.00;1.50;;;16.50;99.90;;;;;;5025423;28;20242;-71
2022/04/22 08:43:01;;;;;;;6.17;1.63;;;16.60;99.90;;;;;;5037875;28;20188;-71
2022/04/22 08:45:29;;;;;;;3.43;1.30;;;16.70;99.90;;;;;;5040959;28;20187;-71
2022/04/22 08:50:45;;;;;;;3.93;1.33;;;16.80;99.90;;;;;;5044853;28;20188;-72
2022/04/22 08:53:21;;;;;;;6.97;4.70;;;16.90;99.90;;;;;;5038926;28;20185;-72
2022/04/22 08:55:55;;;;;;;4.37;1.13;;;16.90;99.90;;;;;;5038143;28;20188;-72
2022/04/22 08:58:26;;;;;;;4.23;1.60;;;17.10;99.90;;;;;;5036256;28;20939;-72
2022/04/22 09:00:58;;;;;;;1.67;1.17;;;17.10;99.90;;;;;;5032260;28;20195;-72
2022/04/22 09:03:52;;;;;;;4.77;1.30;;;17.20;99.90;;;;;;5038101;28;20191;-72
2022/04/22 09:06:22;;;;;;;2.17;1.30;;;17.30;99.90;;;;;;5050402;28;20200;-71
2022/04/22 09:08:51;;;;;;;6.63;1.60;;;17.30;99.90;;;;;;5042008;28;20208;-71
2022/04/22 09:11:19;;;;;;;2.00;1.10;;;17.40;99.90;;;;;;5034362;28;20671;-72
2022/04/22 09:13:46;;;;;;;1.67;1.10;;;17.50;99.90;;;;;;5027490;28;20238;-71
2022/04/22 09:16:22;;;;;;;4.40;1.50;;;17.50;99.90;;;;;;5037989;28;20270;-71
2022/04/22 09:19:04;;;;;;;3.37;1.40;;;17.70;99.90;;;;;;5039793;28;20199;-72
2022/04/22 09:21:31;;;;;;;5.70;1.40;;;17.70;99.90;;;;;;5036532;28;20274;-71
2022/04/22 09:24:13;;;;;;;3.37;1.57;;;17.80;99.90;;;;;;5032247;28;20188;-72
2022/04/22 09:26:40;;;;;;;4.37;1.50;;;17.90;99.90;;;;;;5044230;28;20191;-71
2022/04/22 09:29:10;;;;;;;4.10;1.50;;;17.90;99.90;;;;;;5031053;28;20654;-72
2022/04/22 09:31:48;;;;;;;1.77;1.20;;;18.10;99.90;;;;;;5042769;28;20208;-72
2022/04/22 09:34:42;;;;;;;3.93;1.60;;;18.20;99.90;;;;;;5032678;28;20195;-72
2022/04/22 09:42:59;;;;;;;6.57;1.90;;;18.50;99.90;;;;;;5033852;28;20266;-72
2022/04/22 09:45:41;;;;;;;8.57;1.97;;;18.70;99.90;;;;;;5024275;28;22175;-72
2022/04/22 09:48:17;;;;;;;3.80;1.50;;;18.70;99.90;;;;;;5028179;28;20211;-71
2022/04/22 09:50:56;;;;;;;4.60;1.60;;;18.80;99.90;;;;;;5028964;28;20274;-71
2022/04/22 09:53:34;;;;;;;4.40;2.00;;;18.90;99.90;;;;;;5029804;28;20168;-71
2022/04/22 09:56:10;;;;;;;3.90;1.37;;;18.90;99.90;;;;;;5023803;28;20198;-72
2022/04/22 09:58:37;;;;;;;4.10;1.70;;;19.10;99.90;;;;;;5030573;28;20710;-71
2022/04/22 10:01:09;;;;;;;5.47;2.00;;;19.10;99.90;;;;;;5039801;28;20322;-71
2022/04/22 10:03:38;;;;;;;4.90;1.60;;;19.20;99.90;;;;;;5043940;28;20219;-72
2022/04/22 10:06:06;;;;;;;5.17;1.57;;;19.30;99.90;;;;;;5036786;28;20267;-76
2022/04/22 10:08:37;;;;;;;4.33;1.63;;;19.30;99.90;;;;;;5045294;28;20345;-72
2022/04/22 10:11:08;;;;;;;3.43;1.50;;;19.40;99.90;;;;;;5030532;28;20190;-72
2022/04/22 10:13:48;;;;;;;1.97;1.40;;;19.50;99.90;;;;;;5022284;28;20184;-72
2022/04/22 10:16:15;;;;;;;2.43;1.37;;;19.50;99.90;;;;;;5047856;28;20187;-72
2022/04/22 10:18:43;;;;;;;9.03;1.60;;;19.50;99.90;;;;;;5025626;28;20192;-72
2022/04/22 10:21:12;;;;;;;4.03;1.40;;;19.50;99.90;;;;;;5042288;28;20192;-72
2022/04/22 10:23:39;;;;;;;4.03;1.70;;;19.60;99.90;;;;;;5024629;28;20196;-72
2022/04/22 10:26:06;;;;;;;4.93;1.67;;;19.60;99.90;;;;;;5036350;28;20187;-71
2022/04/22 10:28:34;;;;;;;3.30;1.50;;;19.70;99.90;;;;;;5043551;28;20222;-72
2022/04/22 10:31:03;;;;;;;2.87;1.47;;;19.70;99.90;;;;;;5041584;28;20187;-72
2022/04/22 10:33:45;;;;;;;4.50;1.50;;;19.70;99.90;;;;;;5036246;28;20245;-72
2022/04/22 10:36:20;;;;;;;2.90;1.40;;;19.80;99.90;;;;;;5035060;28;20191;-72
2022/04/22 10:38:50;;;;;;;1.67;1.30;;;19.80;99.90;;;;;;5041346;28;20187;-71
2022/04/22 10:41:21;;;;;;;3.47;1.60;;;19.80;99.90;;;;;;5031197;28;20271;-78
2022/04/22 10:49:44;;;;;;;4.87;1.43;;;19.90;99.90;;;;;;5037878;28;20295;-72
2022/04/22 10:52:19;;;;;;;5.13;2.03;;;19.90;99.90;;;;;;5032618;28;20680;-73
2022/04/22 10:54:54;;;;;;;4.63;1.70;;;20.00;99.90;;;;;;5039798;28;20182;-73
2022/04/22 10:57:31;;;;;;;4.57;1.80;;;20.00;99.90;;;;;;5028010;28;20191;-72
2022/04/22 11:00:10;;;;;;;5.07;1.90;;;20.00;99.90;;;;;;5043387;28;20999;-73
2022/04/22 11:02:40;;;;;;;5.80;1.97;;;20.00;99.90;;;;;;5020068;28;20646;-73
2022/04/22 11:05:19;;;;;;;4.97;1.93;;;20.00;99.90;;;;;;5020731;28;20184;-72
2022/04/22 11:07:55;;;;;;;2.37;1.60;;;20.10;99.90;;;;;;5016090;28;20978;-71
2022/04/22 11:10:51;;;;;;;4.60;1.67;;;20.10;99.90;;;;;;5028087;28;20214;-72
2022/04/22 11:13:39;;;;;;;3.90;1.50;;;20.10;99.90;;;;;;5035715;28;20214;-72
2022/04/22 11:16:31;;;;;;;4.83;1.87;;;20.10;99.90;;;;;;5035124;28;20192;-72
2022/04/22 11:19:19;;;;;;;2.87;1.83;;;20.10;99.90;;;;;;5032828;28;20661;-72
2022/04/22 11:21:52;;;;;;;6.93;1.97;;;20.10;99.90;;;;;;5019156;28;20544;-72
2022/04/22 11:24:33;;;;;;;4.67;1.70;;;20.10;99.90;;;;;;5020386;28;20649;-72
2022/04/22 11:27:11;;;;;;;3.20;1.70;;;20.20;99.90;;;;;;5035073;28;20195;-72
2022/04/22 11:29:39;;;;;;;2.90;1.63;;;20.10;99.90;;;;;;5046935;28;20217;-72
2022/04/22 11:32:20;;;;;;;2.73;1.50;;;20.20;99.90;;;;;;5054018;28;20208;-72
2022/04/22 11:35:20;;;;;;;5.53;2.03;;;20.20;99.90;;;;;;5040718;28;20180;-72
2022/04/22 11:38:04;;;;;;;5.97;2.20;;;20.20;99.90;;;;;;5054479;28;20643;-73
2022/04/22 11:40:40;;;;;;;6.67;2.20;;;20.20;99.90;;;;;;5019660;28;20287;-72
2022/04/22 11:43:18;;;;;;;5.93;2.10;;;20.30;99.90;;;;;;5033934;28;20893;-72
2022/04/22 11:45:51;;;;;;;11.20;2.73;;;20.30;99.90;;;;;;5050396;28;20216;-72
2022/04/22 11:48:24;;;;;;;4.30;2.10;;;20.20;99.90;;;;;;5032553;28;20294;-72
2022/04/22 11:50:58;;;;;;;5.93;2.87;;;20.30;99.90;;;;;;5021259;28;20558;-72
2022/04/22 11:53:29;;;;;;;2.90;2.00;;;20.30;99.90;;;;;;5037079;28;20685;-72
2022/04/22 11:55:56;;;;;;;4.37;2.00;;;20.30;99.90;;;;;;5035487;28;20187;-72
2022/04/22 11:58:27;;;;;;;4.83;2.20;;;20.30;99.90;;;;;;5037173;28;20821;-71
2022/04/22 12:06:25;;;;;;;6.27;1.90;;;20.30;99.90;;;;;;5044249;28;20295;-71
2022/04/22 12:08:59;;;;;;;5.27;2.10;;;20.30;99.90;;;;;;5039233;28;20653;-72
2022/04/22 12:11:26;;;;;;;4.53;2.20;;;20.20;99.90;;;;;;5034566;28;20183;-73
2022/04/22 12:13:54;;;;;;;4.13;1.90;;;20.30;99.90;;;;;;5045679;28;20187;-72
2022/04/22 12:16:27;;;;;;;4.50;2.10;;;20.30;99.90;;;;;;5043952;28;20219;-72
2022/04/22 12:18:56;;;;;;;5.07;2.37;;;20.30;99.90;;;;;;5047392;28;20286;-72
2022/04/22 12:21:25;;;;;;;5.23;1.83;;;20.30;99.90;;;;;;5039621;28;20540;-71
2022/04/22 12:24:05;;;;;;;4.73;2.17;;;20.30;99.90;;;;;;5032733;28;20211;-72
2022/04/22 12:26:36;;;;;;;6.70;2.50;;;20.30;99.90;;;;;;5035360;28;22538;-71
2022/04/22 12:29:22;;;;;;;9.90;2.43;;;20.30;99.90;;;;;;5049667;28;20278;-72
2022/04/22 12:31:55;;;;;;;5.77;2.03;;;20.30;99.90;;;;;;5029865;28;20560;-73
2022/04/22 12:34:34;;;;;;;5.73;2.33;;;20.30;99.90;;;;;;5049570;28;20187;-72
2022/04/22 12:37:07;;;;;;;4.13;2.10;;;20.30;99.90;;;;;;5055796;28;20271;-71
2022/04/22 12:39:42;;;;;;;5.53;2.00;;;20.30;99.90;;;;;;5018084;28;20198;-71
2022/04/22 12:42:18;;;;;;;5.40;2.27;;;20.30;99.90;;;;;;5019698;28;20196;-72
2022/04/22 12:54:08;;;;;;;4.50;1.93;;;20.30;99.90;;;;;;5037793;28;20200;-71
2022/04/22 12:56:35;;;;;;;3.40;2.00;;;20.30;99.90;;;;;;5031453;28;20205;-71
2022/04/22 12:59:03;;;;;;;4.40;2.50;;;20.20;99.90;;;;;;5047564;28;20655;-71
2022/04/22 13:01:39;;;;;;;5.87;2.10;;;20.20;99.90;;;;;;5030119;28;20298;-71
2022/04/22 13:04:18;;;;;;;4.13;2.00;;;20.20;99.90;;;;;;5040665;28;20667;-71
2022/04/22 13:06:48;;;;;;;6.37;2.10;;;20.20;99.90;;;;;;5019844;28;20211;-71
2022/04/22 13:09:18;;;;;;;8.20;2.37;;;20.10;99.90;;;;;;5027436;28;20353;-71
2022/04/22 13:11:47;;;;;;;5.87;2.30;;;20.10;99.90;;;;;;5018786;28;20196;-71
2022/04/22 13:14:15;;;;;;;8.43;2.40;;;20.10;99.90;;;;;;5047512;28;20184;-72
2022/04/22 13:16:42;;;;;;;14.63;2.10;;;20.10;99.90;;;;;;5040157;28;20234;-72
2022/04/22 13:19:11;;;;;;;7.37;2.10;;;20.10;99.90;;;;;;5049833;28;20191;-71
2022/04/22 13:21:37;;;;;;;9.90;2.27;;;20.10;99.90;;;;;;5030972;28;20294;-72
2022/04/22 13:24:04;;;;;;;8.23;2.27;;;20.10;99.90;;;;;;5023218;28;20242;-71
2022/04/22 13:26:31;;;;;;;8.67;2.20;;;20.10;99.90;;;;;;5040320;28;20703;-71
2022/04/22 13:28:59;;;;;;;12.33;2.80;;;20.00;99.90;;;;;;5035531;28;20769;-71
2022/04/22 13:31:26;;;;;;;5.37;2.40;;;20.10;99.90;;;;;;5041225;28;20192;-72
2022/04/22 13:33:53;;;;;;;12.43;2.57;;;20.10;99.90;;;;;;5028369;28;20188;-71
2022/04/22 13:36:19;;;;;;;8.83;2.40;;;20.10;99.90;;;;;;5052597;28;20188;-71
2022/04/22 13:38:48;;;;;;;8.90;2.80;;;20.00;99.90;;;;;;5038342;28;20247;-71
2022/04/22 13:41:16;;;;;;;5.83;2.83;;;20.00;99.90;;;;;;5034524;28;20700;-71
2022/04/22 13:43:43;;;;;;;4.60;2.53;;;20.00;99.90;;;;;;5043608;28;20226;-71
2022/04/22 13:54:33;;;;;;;5.20;3.00;;;19.90;99.90;;;;;;5048484;28;20307;-71
2022/04/22 13:57:06;;;;;;;7.00;2.70;;;19.80;99.90;;;;;;5022418;28;20192;-71
2022/04/22 13:59:33;;;;;;;5.27;2.63;;;19.80;99.90;;;;;;5039024;28;20252;-72
2022/04/22 14:01:59;;;;;;;6.73;2.80;;;19.70;99.90;;;;;;5039905;28;20588;-71
2022/04/22 14:04:26;;;;;;;7.67;3.27;;;19.80;99.90;;;;;;5042311;28;20836;-71
2022/04/22 14:06:52;;;;;;;11.73;3.33;;;19.90;99.90;;;;;;5026203;28;20223;-72
2022/04/22 14:09:18;;;;;;;8.20;2.87;;;19.80;99.90;;;;;;5032641;28;20211;-72
2022/04/22 14:11:46;;;;;;;9.43;3.00;;;19.70;99.90;;;;;;5032397;28;20196;-72
2022/04/22 14:14:16;;;;;;;6.73;3.23;;;19.70;99.90;;;;;;5034818;28;20195;-72
2022/04/22 14:16:42;;;;;;;7.57;3.03;;;19.60;99.90;;;;;;5028154;28;20632;-72
2022/04/22 14:19:09;;;;;;;10.83;3.03;;;19.60;99.90;;;;;;5045434;28;20191;-71
2022/04/22 14:21:35;;;;;;;8.67;3.37;;;19.60;99.90;;;;;;5031937;28;20559;-72